Time;durP1;ratioP1;P1;durP2;ratioP2;P2;SDS_P1;SDS_P2;PMS_P1;PMS_P2;Temp;Humidity;BMP_temperature;BMP_pressure;BME280_temperature;BME280_humidity;BME280_pressure;Samples;Min_cycle;Max_cycle;Signal;HPM_P1;HPM_P2
2023/06/07 00:00:51;;;;;;;11.20;6.13;;;;;;;15.74;100.00;102102.84;5007137;28;20280;-71
2023/06/07 00:03:17;;;;;;;10.13;6.00;;;;;;;15.62;100.00;102112.91;5002541;28;20226;-70
2023/06/07 00:05:43;;;;;;;8.57;5.60;;;;;;;15.57;100.00;102110.22;5008787;28;20229;-72
2023/06/07 00:08:09;;;;;;;11.13;6.47;;;;;;;15.54;100.00;102105.03;5008425;28;20210;-72
2023/06/07 00:10:36;;;;;;;10.43;5.80;;;;;;;15.44;100.00;102110.84;5006759;28;20227;-72
2023/06/07 00:13:02;;;;;;;9.60;5.73;;;;;;;15.36;100.00;102109.81;5007522;28;20319;-70
2023/06/07 00:15:28;;;;;;;10.17;5.90;;;;;;;15.36;100.00;102102.06;5005500;28;20191;-72
2023/06/07 00:17:55;;;;;;;12.53;6.43;;;;;;;15.34;100.00;102105.47;5004885;28;20198;-71
2023/06/07 00:20:20;;;;;;;12.27;5.87;;;;;;;15.25;100.00;102097.50;4990543;28;20195;-72
2023/06/07 00:22:47;;;;;;;10.27;6.27;;;;;;;15.27;100.00;102103.56;5008344;28;20219;-70
2023/06/07 00:25:13;;;;;;;10.40;6.63;;;;;;;15.24;100.00;102108.66;5008067;28;20558;-70
2023/06/07 00:27:38;;;;;;;14.90;6.53;;;;;;;15.11;100.00;102109.25;5004054;28;20187;-70
2023/06/07 00:30:04;;;;;;;10.43;6.20;;;;;;;15.12;100.00;102108.41;4990079;28;20213;-71
2023/06/07 00:32:31;;;;;;;9.93;6.50;;;;;;;15.10;100.00;102102.34;5004719;28;20317;-71
2023/06/07 00:34:57;;;;;;;9.50;5.90;;;;;;;15.01;100.00;102110.75;4989509;28;20242;-70
2023/06/07 00:37:23;;;;;;;10.93;6.60;;;;;;;15.03;100.00;102108.19;4990482;28;20236;-71
2023/06/07 00:39:48;;;;;;;11.10;6.90;;;;;;;14.99;100.00;102106.38;4990765;28;20572;-70
2023/06/07 00:42:17;;;;;;;8.77;6.57;;;;;;;14.91;100.00;102111.38;4988950;28;20266;-69
2023/06/07 00:44:42;;;;;;;13.10;6.33;;;;;;;14.88;100.00;102108.72;5006934;28;20215;-70
2023/06/07 00:47:09;;;;;;;12.60;6.70;;;;;;;14.94;100.00;102108.88;5003945;28;20195;-71
2023/06/07 00:49:34;;;;;;;11.47;6.43;;;;;;;14.91;100.00;102107.97;4990416;28;20241;-72
2023/06/07 00:52:00;;;;;;;16.77;6.63;;;;;;;14.88;100.00;102106.16;5006990;28;20203;-72
2023/06/07 00:54:27;;;;;;;12.03;6.77;;;;;;;14.85;100.00;102102.63;4985791;28;20191;-70
2023/06/07 00:56:52;;;;;;;9.67;5.87;;;;;;;14.70;100.00;102105.75;4980667;28;20680;-72
2023/06/07 00:59:20;;;;;;;14.00;6.80;;;;;;;14.74;100.00;102099.81;4987443;28;20196;-72
2023/06/07 01:01:51;;;;;;;11.47;6.60;;;;;;;14.68;100.00;102104.84;4989777;28;20309;-71
2023/06/07 01:04:20;;;;;;;11.60;6.20;;;;;;;14.57;100.00;102100.28;5004109;28;20195;-70
2023/06/07 01:06:45;;;;;;;9.40;6.07;;;;;;;14.57;100.00;102108.00;4990429;28;20291;-72
2023/06/07 01:09:13;;;;;;;8.93;5.90;;;;;;;14.57;100.00;102106.31;5006695;28;20242;-71
2023/06/07 01:11:42;;;;;;;9.97;6.67;;;;;;;14.54;100.00;102106.22;4990105;28;20303;-71
2023/06/07 01:14:10;;;;;;;14.20;6.53;;;;;;;14.48;100.00;102100.94;4987679;28;20778;-71
2023/06/07 01:16:37;;;;;;;12.63;6.70;;;;;;;14.43;100.00;102104.22;4989103;28;20195;-72
2023/06/07 01:19:04;;;;;;;12.00;6.50;;;;;;;14.43;100.00;102099.06;4989839;28;20237;-71
2023/06/07 01:21:33;;;;;;;13.63;7.20;;;;;;;14.36;100.00;102102.34;4990038;28;20306;-72
2023/06/07 01:23:59;;;;;;;11.90;6.83;;;;;;;14.27;100.00;102095.25;4992036;28;20278;-72
2023/06/07 01:26:27;;;;;;;12.50;6.80;;;;;;;14.34;100.00;102096.28;4991829;28;20568;-72
2023/06/07 01:28:54;;;;;;;11.27;6.60;;;;;;;14.29;100.00;102101.34;4994354;28;20195;-72
2023/06/07 01:31:22;;;;;;;12.67;6.70;;;;;;;14.23;100.00;102098.59;5006649;28;20750;-71
2023/06/07 01:33:51;;;;;;;11.10;6.07;;;;;;;14.11;100.00;102100.84;4990226;28;20229;-70
2023/06/07 01:36:18;;;;;;;12.57;6.47;;;;;;;14.16;100.00;102101.81;5009466;28;20604;-72
2023/06/07 01:38:45;;;;;;;11.43;6.77;;;;;;;14.16;100.00;102103.50;5008495;28;20187;-71
2023/06/07 01:41:14;;;;;;;13.17;6.90;;;;;;;14.06;100.00;102096.41;5010407;28;20244;-73
2023/06/07 01:43:40;;;;;;;15.33;6.70;;;;;;;14.04;100.00;102093.78;5007554;28;20199;-72
2023/06/07 01:46:06;;;;;;;12.93;6.87;;;;;;;14.02;100.00;102099.72;5006635;28;20206;-72
2023/06/07 01:48:32;;;;;;;15.07;6.83;;;;;;;13.97;100.00;102094.47;4993797;28;20282;-72
2023/06/07 01:50:57;;;;;;;9.60;6.27;;;;;;;13.93;100.00;102095.22;4997560;28;20326;-73
2023/06/07 01:53:24;;;;;;;15.17;7.23;;;;;;;13.87;100.00;102091.59;5008744;28;20221;-73
2023/06/07 01:56:03;;;;;;;14.40;6.07;;;;;;;13.89;100.00;102092.50;4993275;28;20191;-72
2023/06/07 01:58:45;;;;;;;13.70;6.87;;;;;;;13.78;100.00;102089.69;5007419;28;20676;-72
2023/06/07 02:01:18;;;;;;;13.73;6.90;;;;;;;13.77;100.00;102094.78;4988405;28;20219;-72
2023/06/07 02:03:52;;;;;;;12.50;7.37;;;;;;;13.75;100.00;102096.41;4993135;28;20191;-71
2023/06/07 02:06:27;;;;;;;11.27;7.03;;;;;;;13.73;100.00;102088.69;5008739;28;20307;-70
2023/06/07 02:08:57;;;;;;;11.47;6.00;;;;;;;13.67;100.00;102091.06;4991431;28;20186;-73
2023/06/07 02:11:25;;;;;;;12.87;6.17;;;;;;;13.60;100.00;102091.75;5008295;28;20269;-72
2023/06/07 02:13:51;;;;;;;11.80;6.43;;;;;;;13.60;100.00;102090.88;4992876;28;20187;-72
2023/06/07 02:16:16;;;;;;;11.97;6.17;;;;;;;13.55;100.00;102090.75;5005452;28;20322;-73
2023/06/07 02:18:42;;;;;;;12.30;6.40;;;;;;;13.57;100.00;102088.22;5008131;28;20187;-72
2023/06/07 02:21:08;;;;;;;12.40;6.53;;;;;;;13.48;100.00;102083.69;4973755;28;20225;-73
2023/06/07 02:23:34;;;;;;;12.93;6.17;;;;;;;13.41;100.00;102086.06;5009943;28;20207;-72
2023/06/07 02:26:01;;;;;;;14.00;6.77;;;;;;;13.44;100.00;102087.00;5009826;28;20270;-71
2023/06/07 02:28:26;;;;;;;15.77;7.00;;;;;;;13.35;100.00;102083.31;5005288;28;20398;-73
2023/06/07 02:30:55;;;;;;;11.97;6.27;;;;;;;13.31;100.00;102087.47;5007102;28;20289;-72
2023/06/07 02:33:21;;;;;;;12.83;6.50;;;;;;;13.27;100.00;102083.09;5002215;28;20216;-71
2023/06/07 02:35:48;;;;;;;15.50;6.77;;;;;;;13.24;100.00;102084.69;4990365;28;20836;-71
2023/06/07 02:38:14;;;;;;;13.97;5.87;;;;;;;13.21;100.00;102093.19;5010069;28;20301;-72
2023/06/07 02:40:39;;;;;;;14.77;6.43;;;;;;;13.13;100.00;102097.28;5009357;28;20279;-72
2023/06/07 02:43:05;;;;;;;12.13;5.60;;;;;;;13.08;100.00;102083.38;4991141;28;20288;-72
2023/06/07 02:45:30;;;;;;;10.03;5.37;;;;;;;13.15;100.00;102081.88;5005915;28;20202;-73
2023/06/07 02:47:56;;;;;;;15.40;6.47;;;;;;;13.11;100.00;102082.63;5004782;28;20877;-72
2023/06/07 02:50:23;;;;;;;13.50;6.53;;;;;;;13.03;100.00;102094.38;4991893;28;20711;-72
2023/06/07 02:52:50;;;;;;;15.37;5.77;;;;;;;13.04;100.00;102086.72;4991788;28;20295;-72
2023/06/07 02:55:16;;;;;;;13.27;5.90;;;;;;;13.03;100.00;102092.66;5009132;28;20233;-72
2023/06/07 02:57:42;;;;;;;12.37;6.50;;;;;;;12.97;100.00;102089.91;5008076;28;20285;-72
2023/06/07 03:00:11;;;;;;;12.17;5.43;;;;;;;12.93;100.00;102088.06;4988057;28;20669;-72
2023/06/07 03:02:51;;;;;;;15.30;6.20;;;;;;;12.92;100.00;102094.03;5018252;28;20281;-72
2023/06/07 03:05:18;;;;;;;14.27;6.37;;;;;;;12.90;100.00;102101.69;5019363;28;20657;-72
2023/06/07 03:07:46;;;;;;;13.70;5.97;;;;;;;12.85;100.00;102102.38;4992012;28;20281;-72
2023/06/07 03:10:12;;;;;;;16.23;5.87;;;;;;;12.85;100.00;102097.22;4987786;28;20286;-73
2023/06/07 03:12:38;;;;;;;17.07;6.17;;;;;;;12.86;100.00;102096.41;4991371;28;20210;-73
2023/06/07 03:15:06;;;;;;;15.90;6.57;;;;;;;12.79;100.00;102099.63;4974553;28;20213;-72
2023/06/07 03:17:32;;;;;;;15.43;6.40;;;;;;;12.77;100.00;102099.56;4991132;28;20277;-72
2023/06/07 03:19:58;;;;;;;12.83;6.33;;;;;;;12.79;100.00;102104.75;4989813;28;20206;-73
2023/06/07 03:22:26;;;;;;;15.13;5.77;;;;;;;12.78;100.00;102103.03;5023635;28;20698;-73
2023/06/07 03:24:54;;;;;;;16.27;6.40;;;;;;;12.76;100.00;102102.97;5008738;28;20195;-70
2023/06/07 03:27:23;;;;;;;16.40;6.67;;;;;;;12.78;100.00;102106.47;4987725;28;20708;-73
2023/06/07 03:29:51;;;;;;;15.07;6.17;;;;;;;12.78;100.00;102101.34;4989712;28;20245;-72
2023/06/07 03:32:18;;;;;;;14.73;5.83;;;;;;;12.78;100.00;102096.19;4988069;28;20294;-72
2023/06/07 03:34:45;;;;;;;16.20;5.97;;;;;;;12.80;100.00;102097.09;4975354;28;20183;-72
2023/06/07 03:37:11;;;;;;;15.10;5.90;;;;;;;12.74;100.00;102096.91;4994872;28;20202;-73
2023/06/07 03:39:38;;;;;;;17.67;6.23;;;;;;;12.73;100.00;102107.16;4988327;28;20215;-73
2023/06/07 03:42:04;;;;;;;13.57;6.53;;;;;;;12.72;100.00;102107.97;4989204;28;20304;-73
2023/06/07 03:44:29;;;;;;;14.17;5.80;;;;;;;12.71;100.00;102104.53;4990138;28;20196;-72
2023/06/07 03:46:55;;;;;;;13.20;6.63;;;;;;;12.73;100.00;102109.72;5018872;28;20187;-70
2023/06/07 03:49:21;;;;;;;20.00;6.80;;;;;;;12.69;100.00;102106.19;5015675;28;20620;-71
2023/06/07 03:51:46;;;;;;;16.00;5.77;;;;;;;12.69;100.00;102113.03;4975548;28;20585;-73
2023/06/07 03:54:14;;;;;;;16.47;6.10;;;;;;;12.71;100.00;102109.66;5023476;28;20187;-72
2023/06/07 03:56:41;;;;;;;18.07;6.13;;;;;;;12.73;100.00;102108.00;4975351;28;20191;-70
2023/06/07 03:59:11;;;;;;;15.27;5.97;;;;;;;12.71;100.00;102099.38;4987011;28;20206;-73
2023/06/07 04:01:39;;;;;;;13.60;5.83;;;;;;;12.77;100.00;102098.72;4990699;28;20211;-72
2023/06/07 04:04:05;;;;;;;17.27;5.70;;;;;;;12.72;100.00;102100.28;4983246;28;20195;-73
2023/06/07 04:06:31;;;;;;;17.47;6.70;;;;;;;12.74;100.00;102111.47;4989872;28;20202;-72
2023/06/07 04:08:59;;;;;;;14.57;6.07;;;;;;;12.72;100.00;102106.25;4991091;28;20202;-71
2023/06/07 04:11:26;;;;;;;20.77;6.97;;;;;;;12.78;100.00;102103.91;4990639;28;20194;-71
2023/06/07 04:13:53;;;;;;;13.57;5.90;;;;;;;12.84;100.00;102098.06;4990402;28;20598;-72
2023/06/07 04:16:20;;;;;;;13.20;5.80;;;;;;;12.85;100.00;102102.38;4983654;28;20222;-72
2023/06/07 04:18:47;;;;;;;16.67;6.30;;;;;;;12.86;100.00;102094.69;4990665;28;20957;-72
2023/06/07 04:21:13;;;;;;;14.27;5.90;;;;;;;12.95;100.00;102102.69;4984002;28;20234;-70
2023/06/07 04:23:41;;;;;;;10.77;5.40;;;;;;;12.95;100.00;102100.13;4987267;28;20218;-70
2023/06/07 04:26:08;;;;;;;18.27;6.30;;;;;;;12.95;100.00;102099.28;4990447;28;20198;-71
2023/06/07 04:28:34;;;;;;;16.53;5.90;;;;;;;12.99;100.00;102101.16;4990498;28;21125;-72
2023/06/07 04:31:02;;;;;;;16.93;5.57;;;;;;;13.02;100.00;102093.50;4985718;28;20203;-71
2023/06/07 04:33:28;;;;;;;14.03;5.87;;;;;;;13.10;100.00;102094.59;4988888;28;20309;-71
2023/06/07 04:35:58;;;;;;;16.10;6.10;;;;;;;13.15;100.00;102095.59;4983636;28;20194;-71
2023/06/07 04:38:25;;;;;;;14.17;5.73;;;;;;;13.22;100.00;102094.94;4973698;28;20198;-71
2023/06/07 04:41:13;;;;;;;17.00;6.03;;;;;;;13.20;100.00;102093.16;4988333;28;20195;-72
2023/06/07 04:43:51;;;;;;;13.17;5.20;;;;;;;13.25;100.00;102089.03;5018881;28;20195;-71
2023/06/07 04:46:25;;;;;;;15.80;6.00;;;;;;;13.34;100.00;102095.31;4983036;28;20455;-71
2023/06/07 04:48:51;;;;;;;15.73;6.20;;;;;;;13.40;100.00;102099.75;4986796;28;20511;-71
2023/06/07 04:51:20;;;;;;;15.93;6.53;;;;;;;13.45;100.00;102099.03;4999713;28;20187;-71
2023/06/07 04:53:49;;;;;;;17.20;5.70;;;;;;;13.54;100.00;102098.44;4993241;28;20644;-71
2023/06/07 04:56:19;;;;;;;16.77;5.90;;;;;;;13.67;100.00;102103.94;4986673;28;20536;-71
2023/06/07 04:58:47;;;;;;;11.03;5.37;;;;;;;13.74;100.00;102107.56;4991756;28;20278;-72
2023/06/07 05:01:16;;;;;;;17.03;5.87;;;;;;;13.85;100.00;102101.88;4986344;28;20223;-71
2023/06/07 05:03:42;;;;;;;17.03;6.07;;;;;;;13.90;100.00;102107.16;4993868;28;20676;-71
2023/06/07 05:06:07;;;;;;;18.70;5.77;;;;;;;14.06;100.00;102099.84;4989660;28;20202;-71
2023/06/07 05:08:33;;;;;;;16.07;5.70;;;;;;;14.09;100.00;102102.50;4992478;28;20567;-72
2023/06/07 05:10:59;;;;;;;13.87;5.33;;;;;;;14.21;100.00;102104.53;4994094;28;20209;-70
2023/06/07 05:13:26;;;;;;;15.70;5.80;;;;;;;14.33;100.00;102110.00;4986697;28;20212;-72
2023/06/07 05:15:53;;;;;;;15.80;5.10;;;;;;;14.40;100.00;102119.59;5019822;28;20226;-71
2023/06/07 05:18:19;;;;;;;14.23;5.47;;;;;;;14.47;100.00;102117.25;4987263;28;20192;-71
2023/06/07 05:20:48;;;;;;;21.20;5.93;;;;;;;14.55;100.00;102122.56;4977959;28;20744;-70
2023/06/07 05:23:16;;;;;;;12.47;5.27;;;;;;;14.66;100.00;102124.56;4989183;28;20211;-72
2023/06/07 05:25:44;;;;;;;12.17;5.40;;;;;;;14.76;100.00;102118.78;4994007;28;20198;-71
2023/06/07 05:28:12;;;;;;;16.70;5.47;;;;;;;14.90;100.00;102116.50;4989257;28;20727;-72
2023/06/07 05:30:39;;;;;;;18.47;5.77;;;;;;;14.92;100.00;102109.69;4993280;28;20274;-71
2023/06/07 05:33:05;;;;;;;13.87;5.70;;;;;;;14.98;100.00;102120.13;4985640;28;20207;-71
2023/06/07 05:35:32;;;;;;;18.47;6.23;;;;;;;15.06;100.00;102116.03;4992075;28;20235;-71
2023/06/07 05:37:58;;;;;;;10.50;4.87;;;;;;;15.18;100.00;102118.84;5010615;28;20644;-71
2023/06/07 05:40:23;;;;;;;17.00;5.20;;;;;;;15.24;100.00;102119.84;4991342;28;20293;-73
2023/06/07 05:42:50;;;;;;;16.23;5.30;;;;;;;15.33;100.00;102111.44;5007486;28;20285;-72
2023/06/07 05:45:17;;;;;;;16.57;5.67;;;;;;;15.43;100.00;102115.97;4986430;28;20207;-73
2023/06/07 05:47:44;;;;;;;14.93;6.37;;;;;;;15.50;100.00;102113.53;4992664;28;20199;-73
2023/06/07 05:50:11;;;;;;;14.23;5.60;;;;;;;15.57;100.00;102117.13;4986112;28;20207;-72
2023/06/07 05:52:37;;;;;;;14.27;5.60;;;;;;;15.74;100.00;102114.00;4992213;28;20673;-71
2023/06/07 05:55:03;;;;;;;14.57;5.50;;;;;;;15.78;100.00;102117.50;5009186;28;20687;-71
2023/06/07 05:57:29;;;;;;;13.57;5.57;;;;;;;15.95;100.00;102129.03;5006214;28;20203;-70
2023/06/07 05:59:55;;;;;;;17.57;6.13;;;;;;;16.03;100.00;102115.41;4993413;28;20198;-72
2023/06/07 06:02:23;;;;;;;13.13;5.67;;;;;;;16.15;100.00;102113.03;5001700;28;20699;-72
2023/06/07 06:04:51;;;;;;;11.63;5.27;;;;;;;15.94;100.00;102127.31;5003551;28;20195;-72
2023/06/07 06:07:17;;;;;;;14.17;5.20;;;;;;;16.12;100.00;102118.16;4991742;28;20201;-72
2023/06/07 06:09:43;;;;;;;16.57;6.23;;;;;;;16.13;100.00;102119.91;5008594;28;20191;-72
2023/06/07 06:12:09;;;;;;;11.03;5.13;;;;;;;16.39;100.00;102113.44;5010806;28;20268;-71
2023/06/07 06:14:35;;;;;;;15.47;5.43;;;;;;;16.39;100.00;102110.84;4989153;28;20195;-72
2023/06/07 06:17:01;;;;;;;13.47;5.17;;;;;;;16.67;100.00;102107.03;4992460;28;20210;-71
2023/06/07 06:19:26;;;;;;;15.33;5.13;;;;;;;16.75;100.00;102098.53;5002929;28;20195;-71
2023/06/07 06:21:52;;;;;;;17.03;5.47;;;;;;;16.93;100.00;102095.31;5009973;28;20219;-71
2023/06/07 06:24:17;;;;;;;15.20;5.13;;;;;;;16.95;100.00;102084.13;5005982;28;20684;-72
2023/06/07 06:26:43;;;;;;;15.47;5.10;;;;;;;17.11;100.00;102086.09;5007347;28;20206;-72
2023/06/07 06:29:08;;;;;;;12.33;5.33;;;;;;;17.38;100.00;102099.38;5005412;28;20195;-72
2023/06/07 06:31:34;;;;;;;13.07;5.27;;;;;;;17.49;100.00;102068.44;5002602;28;20219;-72
2023/06/07 06:34:00;;;;;;;13.60;4.47;;;;;;;17.55;100.00;102059.00;4984557;28;20198;-72
2023/06/07 06:36:26;;;;;;;13.03;4.93;;;;;;;17.57;100.00;102049.53;5007205;28;20199;-71
2023/06/07 06:38:52;;;;;;;11.70;4.40;;;;;;;17.82;100.00;102064.47;5006956;28;20191;-72
2023/06/07 06:41:17;;;;;;;13.23;4.90;;;;;;;17.89;100.00;102009.25;5004539;28;20194;-72
2023/06/07 06:43:43;;;;;;;16.13;4.97;;;;;;;18.16;100.00;102026.75;4994504;28;20539;-71
2023/06/07 06:46:11;;;;;;;11.10;4.63;;;;;;;18.28;100.00;102014.72;4985468;28;20191;-72
2023/06/07 06:48:37;;;;;;;12.40;4.63;;;;;;;18.33;100.00;101991.47;4990316;28;20265;-71
2023/06/07 06:51:03;;;;;;;12.00;4.07;;;;;;;18.44;100.00;101984.59;5006349;28;20265;-72
2023/06/07 06:53:29;;;;;;;11.77;4.27;;;;;;;18.44;100.00;101967.31;5007913;28;20285;-71
2023/06/07 06:55:55;;;;;;;11.90;4.67;;;;;;;18.62;100.00;101951.84;5007074;28;20247;-73
2023/06/07 06:58:20;;;;;;;12.63;4.33;;;;;;;18.73;100.00;101928.50;5004571;28;20246;-72
2023/06/07 07:00:46;;;;;;;11.17;4.57;;;;;;;19.07;100.00;101931.22;5004760;28;20195;-72
2023/06/07 07:03:11;;;;;;;11.87;4.50;;;;;;;19.21;100.00;101887.94;4999442;28;20221;-72
2023/06/07 07:05:37;;;;;;;9.23;4.13;;;;;;;19.25;100.00;101874.13;5005479;28;20199;-71
2023/06/07 07:08:06;;;;;;;10.60;4.80;;;;;;;19.35;100.00;101878.47;5009204;28;20603;-72
2023/06/07 07:10:32;;;;;;;13.03;4.60;;;;;;;19.38;100.00;101867.19;5004981;28;20262;-71
2023/06/07 07:12:57;;;;;;;9.37;4.17;;;;;;;19.63;100.00;101885.38;5002840;28;20215;-71
2023/06/07 07:15:23;;;;;;;12.33;5.00;;;;;;;19.77;100.00;101869.78;5002516;28;20227;-70
2023/06/07 07:17:49;;;;;;;14.93;4.80;;;;;;;19.85;100.00;101850.69;5006099;28;20188;-72
2023/06/07 07:20:17;;;;;;;12.20;4.27;;;;;;;20.00;100.00;101834.19;5021054;28;20305;-71
2023/06/07 07:22:44;;;;;;;11.97;4.83;;;;;;;20.11;100.00;101835.94;5007763;28;20234;-71
2023/06/07 07:25:10;;;;;;;12.07;4.33;;;;;;;20.10;100.00;101834.19;5004377;28;20202;-71
2023/06/07 07:27:36;;;;;;;10.53;4.27;;;;;;;20.34;100.00;101877.47;4989096;28;20227;-71
2023/06/07 07:30:04;;;;;;;10.40;4.53;;;;;;;20.48;100.00;101839.22;5004936;28;20229;-71
2023/06/07 07:32:30;;;;;;;10.63;4.73;;;;;;;20.44;100.00;101827.97;5000922;28;20215;-72
2023/06/07 07:34:55;;;;;;;11.47;4.90;;;;;;;20.81;100.00;101826.88;5005854;28;20836;-71
2023/06/07 07:37:21;;;;;;;13.80;4.73;;;;;;;20.80;100.00;101819.06;4989677;28;20238;-72
2023/06/07 07:39:46;;;;;;;11.00;4.30;;;;;;;21.02;100.00;101808.53;5007416;28;20195;-71
2023/06/07 07:42:12;;;;;;;9.17;3.97;;;;;;;21.07;98.18;101782.44;5005602;28;20229;-73
2023/06/07 07:44:37;;;;;;;10.47;4.60;;;;;;;20.96;100.00;101807.72;5004016;28;20199;-71
2023/06/07 07:47:05;;;;;;;10.77;4.47;;;;;;;21.22;100.00;101816.16;5004267;28;20203;-72
2023/06/07 07:49:31;;;;;;;14.23;5.33;;;;;;;21.53;99.65;101815.03;4990501;28;20199;-72
2023/06/07 07:51:56;;;;;;;10.80;4.93;;;;;;;21.67;91.86;101769.69;5008752;28;20905;-72
2023/06/07 07:54:22;;;;;;;11.67;4.10;;;;;;;21.73;93.19;101782.69;5006846;28;20415;-72
2023/06/07 07:56:47;;;;;;;9.93;4.23;;;;;;;21.80;93.21;101788.69;5005838;28;20198;-71
2023/06/07 07:59:13;;;;;;;11.70;5.10;;;;;;;21.87;88.23;101764.25;5003645;28;20245;-72
2023/06/07 08:01:38;;;;;;;12.40;4.63;;;;;;;21.87;85.55;101754.69;5017916;28;20297;-72
2023/06/07 08:04:04;;;;;;;9.10;4.50;;;;;;;21.96;86.64;101765.03;4988488;28;20206;-71
2023/06/07 08:06:29;;;;;;;14.77;5.10;;;;;;;22.03;87.99;101777.09;4995871;28;20311;-69
2023/06/07 08:08:55;;;;;;;14.17;4.77;;;;;;;22.24;86.83;101782.06;4996475;28;20664;-71
2023/06/07 08:11:21;;;;;;;9.53;4.60;;;;;;;22.21;87.11;101779.47;4996199;28;20966;-73
2023/06/07 08:13:47;;;;;;;11.13;5.13;;;;;;;22.23;86.12;101777.72;5000985;28;20206;-75
2023/06/07 08:16:12;;;;;;;14.17;4.67;;;;;;;22.52;88.46;101789.53;5002915;28;20660;-72
2023/06/07 08:18:38;;;;;;;12.83;4.70;;;;;;;22.83;85.15;101768.16;4973873;28;20679;-73
2023/06/07 08:21:03;;;;;;;11.27;5.07;;;;;;;22.92;82.07;101759.31;5008213;28;20191;-72
2023/06/07 08:23:30;;;;;;;15.30;4.53;;;;;;;23.00;77.89;101744.34;5004917;28;20227;-71
2023/06/07 08:25:57;;;;;;;12.17;4.83;;;;;;;22.94;75.04;101736.63;5002679;28;20680;-71
2023/06/07 08:28:26;;;;;;;10.20;4.87;;;;;;;23.16;72.73;101741.44;5005559;28;20952;-71
2023/06/07 08:30:52;;;;;;;12.10;5.03;;;;;;;22.90;74.83;101759.34;5008498;28;20210;-71
2023/06/07 08:33:17;;;;;;;9.77;4.47;;;;;;;23.27;74.90;101778.78;4992029;28;20202;-70
2023/06/07 08:35:42;;;;;;;11.40;4.63;;;;;;;23.41;71.97;101771.53;5012804;28;20326;-70
2023/06/07 08:38:08;;;;;;;7.67;3.90;;;;;;;23.74;70.95;101778.75;5014321;28;20209;-71
2023/06/07 08:40:36;;;;;;;10.40;4.47;;;;;;;23.54;67.31;101795.72;5011528;28;20206;-71
2023/06/07 08:43:02;;;;;;;11.90;5.10;;;;;;;23.92;67.51;101807.22;5007655;28;20567;-71
2023/06/07 08:45:28;;;;;;;10.40;4.93;;;;;;;23.98;64.43;101804.47;5007184;28;20287;-71
2023/06/07 08:47:56;;;;;;;9.35;4.72;;;;;;;24.05;64.52;101819.16;5009249;28;20205;-72
2023/06/07 08:50:21;;;;;;;8.90;4.75;;;;;;;24.12;64.32;101825.16;5005988;28;20673;-71
2023/06/07 08:52:53;;;;;;;8.93;5.15;;;;;;;24.02;61.78;101824.44;5012214;28;20241;-72
2023/06/07 08:55:18;;;;;;;8.15;4.95;;;;;;;24.44;61.61;101827.94;5024390;28;20195;-72
2023/06/07 08:57:46;;;;;;;10.80;4.70;;;;;;;24.18;59.69;101831.09;4993003;28;20195;-71
2023/06/07 09:00:12;;;;;;;11.15;4.75;;;;;;;24.31;59.68;101835.19;4994721;28;20211;-71
2023/06/07 09:02:38;;;;;;;8.13;4.28;;;;;;;24.47;58.31;101826.13;4992934;28;20290;-72
2023/06/07 09:05:06;;;;;;;9.23;4.63;;;;;;;24.77;61.86;101869.16;5012000;28;20294;-71
2023/06/07 09:07:35;;;;;;;10.82;4.72;;;;;;;24.75;57.54;101842.97;5010597;28;20574;-71
2023/06/07 09:10:01;;;;;;;8.52;4.75;;;;;;;24.80;57.76;101848.09;5012468;28;20204;-73
2023/06/07 09:12:26;;;;;;;7.13;4.88;;;;;;;24.76;53.85;101830.72;5007309;28;20219;-71
2023/06/07 09:14:53;;;;;;;9.32;5.00;;;;;;;24.61;53.45;101852.03;5007164;28;20282;-71
2023/06/07 09:17:18;;;;;;;6.53;4.07;;;;;;;24.82;53.96;101859.44;5012159;28;20673;-72
2023/06/07 09:19:44;;;;;;;6.35;4.10;;;;;;;24.99;53.26;101852.91;5011004;28;20191;-72
2023/06/07 09:22:14;;;;;;;8.77;4.63;;;;;;;24.40;55.45;101873.44;5008124;28;20253;-70
2023/06/07 09:24:40;;;;;;;10.93;4.63;;;;;;;24.79;54.74;101873.47;5009574;28;20273;-71
2023/06/07 09:27:08;;;;;;;6.85;4.40;;;;;;;24.65;53.31;101861.56;4993208;28;20237;-71
2023/06/07 09:29:41;;;;;;;8.65;4.40;;;;;;;25.00;53.93;101867.72;4996549;28;20200;-72
2023/06/07 09:32:20;;;;;;;5.43;3.90;;;;;;;25.32;54.22;101865.22;5008316;28;20283;-70
2023/06/07 09:34:46;;;;;;;7.55;4.43;;;;;;;25.57;52.90;101855.84;5009579;28;20199;-71
2023/06/07 09:37:12;;;;;;;5.95;4.13;;;;;;;25.38;50.72;101845.84;5011113;28;20195;-71
2023/06/07 09:39:38;;;;;;;6.75;4.13;;;;;;;25.26;52.29;101872.34;4990665;28;20874;-72
2023/06/07 09:42:15;;;;;;;5.45;4.15;;;;;;;25.57;52.11;101871.59;5009433;28;20217;-72
2023/06/07 09:44:41;;;;;;;9.73;4.97;;;;;;;25.74;51.20;101855.41;5004783;28;20868;-71
2023/06/07 09:47:18;;;;;;;8.23;3.90;;;;;;;25.62;52.25;101867.09;5019695;28;20207;-72
2023/06/07 09:49:43;;;;;;;7.35;4.57;;;;;;;25.72;52.15;101857.19;5024126;28;20209;-71
2023/06/07 09:52:14;;;;;;;10.68;4.55;;;;;;;25.03;53.90;101904.38;5010603;28;20215;-71
2023/06/07 09:54:44;;;;;;;7.43;4.35;;;;;;;25.20;54.07;101903.97;5009186;28;20233;-70
2023/06/07 09:57:31;;;;;;;7.65;4.78;;;;;;;25.35;53.48;101903.63;5005116;28;20203;-71
2023/06/07 10:00:13;;;;;;;7.22;4.78;;;;;;;25.85;51.01;101864.72;5009483;28;20207;-71
2023/06/07 10:02:41;;;;;;;9.80;5.20;;;;;;;26.05;50.91;101872.06;4992866;28;20301;-71
2023/06/07 10:05:07;;;;;;;6.93;4.78;;;;;;;26.17;50.06;101858.59;5008447;28;20675;-72
2023/06/07 10:07:40;;;;;;;5.35;3.92;;;;;;;26.07;51.68;101884.25;4992441;28;20230;-71
2023/06/07 10:10:07;;;;;;;7.30;4.38;;;;;;;26.38;50.72;101863.25;5009906;28;20281;-71
2023/06/07 10:12:38;;;;;;;7.85;4.47;;;;;;;26.66;51.15;101879.97;5003601;28;20281;-70
2023/06/07 10:15:10;;;;;;;9.82;4.47;;;;;;;26.67;49.25;101858.84;5004727;28;20199;-71
2023/06/07 10:17:48;;;;;;;8.60;4.85;;;;;;;26.46;48.20;101871.75;5004257;28;20282;-71
2023/06/07 10:20:24;;;;;;;7.45;4.80;;;;;;;26.62;47.01;101854.66;5008940;28;20201;-70
2023/06/07 10:22:51;;;;;;;7.97;4.95;;;;;;;26.39;46.92;101843.94;5009708;28;20324;-70
2023/06/07 10:25:20;;;;;;;6.88;4.30;;;;;;;26.91;49.13;101896.69;5008762;28;20860;-70
2023/06/07 10:27:55;;;;;;;7.85;5.13;;;;;;;26.79;47.15;101842.72;5006657;28;20199;-71
2023/06/07 10:30:24;;;;;;;8.15;5.45;;;;;;;26.58;46.75;101832.88;5002878;28;20198;-71
2023/06/07 10:32:51;;;;;;;9.48;5.03;;;;;;;26.38;51.10;101916.66;5004494;28;20300;-71
2023/06/07 10:35:17;;;;;;;11.55;4.75;;;;;;;26.79;47.96;101873.38;5010021;28;20201;-71
2023/06/07 10:37:43;;;;;;;9.38;4.70;;;;;;;26.70;47.58;101850.88;5020458;28;20198;-70
2023/06/07 10:40:10;;;;;;;11.48;4.88;;;;;;;26.82;48.33;101847.00;4991688;28;20218;-71
2023/06/07 10:42:44;;;;;;;8.13;4.65;;;;;;;26.96;47.52;101834.28;4999438;28;20216;-71
2023/06/07 10:45:16;;;;;;;9.45;4.70;;;;;;;27.09;47.88;101839.13;5004201;28;20207;-70
2023/06/07 10:47:46;;;;;;;10.48;4.95;;;;;;;27.32;47.06;101835.75;4988224;28;20186;-71
2023/06/07 10:50:26;;;;;;;7.53;4.75;;;;;;;27.57;47.22;101845.38;5009470;28;20206;-71
2023/06/07 10:52:59;;;;;;;8.32;4.65;;;;;;;27.54;46.27;101834.13;5007268;28;20297;-70
2023/06/07 10:55:27;;;;;;;10.88;4.82;;;;;;;27.35;46.12;101825.97;5006092;28;20207;-72
2023/06/07 10:57:53;;;;;;;9.98;5.10;;;;;;;26.45;45.39;101839.38;4991566;28;20210;-71
2023/06/07 11:00:29;;;;;;;5.55;4.28;;;;;;;26.90;46.21;101856.38;5006232;28;20652;-71
2023/06/07 11:03:04;;;;;;;6.00;4.55;;;;;;;26.23;46.28;101854.03;5001036;28;20339;-71
2023/06/07 11:06:06;;;;;;;7.45;4.50;;;;;;;26.99;46.60;101861.34;5007603;28;20293;-71
2023/06/07 11:08:36;;;;;;;9.25;4.20;;;;;;;26.99;45.68;101831.56;5007655;28;20252;-71
2023/06/07 11:11:02;;;;;;;8.85;5.10;;;;;;;26.61;46.87;101856.41;4991396;28;20191;-70
2023/06/07 11:13:54;;;;;;;9.85;4.95;;;;;;;25.86;48.36;101886.56;5005969;28;20223;-69
2023/06/07 11:16:22;;;;;;;6.53;4.55;;;;;;;26.86;46.63;101873.19;4979607;28;20222;-71